Share

Yakutat, AK

5:17 PM AKDT on April 23, 2014 (GMT -0800)
Yakutat (PAYA) Elev 33 ft | 59.50 °N, 139.66 °W | Change Station

Current weather conditions updated 24 minutes ago

Overcast
Overcast
41 °F
Feels Like 41 °F
N
0
Wind Variable Wind from North
Sunrise 5:38 AM
Sunset 8:56 PM
Moon Waning Crescent

Tomorrow is forecast to be Cooler than today. Chance of afternoon showers.

Pressure 29.75 in
Visibility 10.0 miles
Clouds Scattered Clouds 1700 ft
Overcast 2600 ft
Dew Point 37 °F
Humidity 86%
Rainfall 0.04 in
Snow Depth Not available.
UV 1 out of 16
Pollen Not available.
Air Quality Not available.
Flu Activity Sporadic
METAR PAYA 240053Z 00000KT 10SM SCT017 OVC026 05/03 A2975 RMK AO2 SLP073 T00500028

More Conditions Fewer Conditions

Pressure 29.75 in
Visibility 10.0 miles
Clouds Scattered Clouds 1700 ft
Overcast 2600 ft
Dew Point 37 °F
Humidity 86%
Rainfall 0.04 in
Snow Depth Not available.
UV 1 out of 16
Pollen Not available.
Air Quality Not available.
Flu Activity Sporadic
METAR PAYA 240053Z 00000KT 10SM SCT017 OVC026 05/03 A2975 RMK AO2 SLP073 T00500028

More Conditions Fewer Conditions

10-Day Weather Forecast

Almanac

Astronomy

Apr. 23, 2014 Rise Set
Actual Time 5:38 AM AKDT 8:56 PM AKDT
Civil Twilight 4:49 AM AKDT 9:45 PM AKDT
Nautical Twilight 3:41 AM AKDT 10:55 PM AKDT
Astronomical Twilight 1:48 AM AKDT 12:43 AM AKDT
Moon 3:45 AM AKDT (4/23) 1:49 PM AKDT (4/23)
Length of Visible Light 16h 55m
Length of Day
15h 17m
Tomorrow will be 5m 16s longer.
Waning Crescent, 31% of the Moon is Illuminated
Today
Waning Crescent
Apr 29
New
May 6
First Quarter
May 14
Full
May 21
Last Quarter

Today's Extremes

State Highs State Lows

Community

  • Nestled In
    Nestled In
  • Stunning Sunrise
    Stunning Sunrise
  • spring flowers
    spring flowers
  • Earth Day Spectrum Ove' Blue
    Earth Day Spectrum Ove' Blue
  • BARN B&W
    BARN B&W

WunderPhotos

Upload Photos

1,704,485 photos uploaded!

Nearby

Snow Depth

Station Depth Elevation
Upper Tsaina River 50 in 1750 ft
Long Lake 93 in 820 ft
Moraine 6 in 2100 ft
Grandview 33 in 1100 ft
Turnagain Pass 51 in 1880 ft

Coastal Water Temperatures

Place Temperature
No Stations Reporting

Earthquake Activity

City Distance Mag. Time & Date
No recent earthquake activity has been reported nearby.
Minimum magnitude displayed is 2.5.

Nearby Weather Stations

There are no personal weather stations in this area.

What do you think?

We're not finished. Please let us know what you like, what you don't like, and what you are still missing.